sensor_id;sensor_type;location;lat;lon;timestamp;temperature;humidity
45323;DHT22;31382;50.200;8.674;2022-07-29T00:04:59;21.40;83.70
45323;DHT22;31382;50.200;8.674;2022-07-29T00:10:03;21.30;83.20
45323;DHT22;31382;50.200;8.674;2022-07-29T00:15:05;21.30;83.30
45323;DHT22;31382;50.200;8.674;2022-07-29T00:20:07;21.40;82.70
45323;DHT22;31382;50.200;8.674;2022-07-29T00:25:09;21.50;82.30
45323;DHT22;31382;50.200;8.674;2022-07-29T00:30:11;21.50;83.20
45323;DHT22;31382;50.200;8.674;2022-07-29T00:35:13;21.60;81.80
45323;DHT22;31382;50.200;8.674;2022-07-29T00:40:34;21.70;81.40
45323;DHT22;31382;50.200;8.674;2022-07-29T00:45:35;21.80;81.50
45323;DHT22;31382;50.200;8.674;2022-07-29T00:50:38;21.80;82.10
45323;DHT22;31382;50.200;8.674;2022-07-29T00:55:39;21.70;71.80
45323;DHT22;31382;50.200;8.674;2022-07-29T01:00:42;21.70;71.20
45323;DHT22;31382;50.200;8.674;2022-07-29T01:05:46;21.80;70.90
45323;DHT22;31382;50.200;8.674;2022-07-29T01:10:52;21.90;71.20
45323;DHT22;31382;50.200;8.674;2022-07-29T01:15:58;21.90;71.50
45323;DHT22;31382;50.200;8.674;2022-07-29T01:21:39;21.90;71.50
45323;DHT22;31382;50.200;8.674;2022-07-29T01:26:54;21.90;73.10
45323;DHT22;31382;50.200;8.674;2022-07-29T01:32:12;21.90;73.20
45323;DHT22;31382;50.200;8.674;2022-07-29T01:37:37;21.80;72.60
45323;DHT22;31382;50.200;8.674;2022-07-29T01:42:49;21.70;73.50
45323;DHT22;31382;50.200;8.674;2022-07-29T01:53:10;21.30;76.80
45323;DHT22;31382;50.200;8.674;2022-07-29T01:58:14;21.00;79.30
45323;DHT22;31382;50.200;8.674;2022-07-29T02:03:21;20.90;80.70
45323;DHT22;31382;50.200;8.674;2022-07-29T02:08:24;20.70;81.10
45323;DHT22;31382;50.200;8.674;2022-07-29T02:13:27;20.60;82.40
45323;DHT22;31382;50.200;8.674;2022-07-29T02:18:30;20.50;83.50
45323;DHT22;31382;50.200;8.674;2022-07-29T02:23:35;20.40;84.40
45323;DHT22;31382;50.200;8.674;2022-07-29T02:28:55;20.40;85.00
45323;DHT22;31382;50.200;8.674;2022-07-29T02:33:58;20.40;85.50
45323;DHT22;31382;50.200;8.674;2022-07-29T02:39:02;20.30;86.40
45323;DHT22;31382;50.200;8.674;2022-07-29T02:44:17;20.20;87.30
45323;DHT22;31382;50.200;8.674;2022-07-29T02:49:46;20.30;88.10
45323;DHT22;31382;50.200;8.674;2022-07-29T02:55:04;20.30;89.10
45323;DHT22;31382;50.200;8.674;2022-07-29T03:00:09;20.10;89.90
45323;DHT22;31382;50.200;8.674;2022-07-29T03:05:18;20.10;90.80
45323;DHT22;31382;50.200;8.674;2022-07-29T03:10:21;20.10;91.70
45323;DHT22;31382;50.200;8.674;2022-07-29T03:15:23;19.90;92.40
45323;DHT22;31382;50.200;8.674;2022-07-29T03:20:26;19.90;93.20
45323;DHT22;31382;50.200;8.674;2022-07-29T03:25:28;19.80;94.10
45323;DHT22;31382;50.200;8.674;2022-07-29T03:30:29;19.70;94.50
45323;DHT22;31382;50.200;8.674;2022-07-29T03:35:32;19.60;95.40
45323;DHT22;31382;50.200;8.674;2022-07-29T03:40:38;19.50;96.50
45323;DHT22;31382;50.200;8.674;2022-07-29T03:45:43;19.40;98.00
45323;DHT22;31382;50.200;8.674;2022-07-29T03:50:46;19.40;99.20
45323;DHT22;31382;50.200;8.674;2022-07-29T03:55:52;19.30;99.90
45323;DHT22;31382;50.200;8.674;2022-07-29T04:00:55;19.30;99.90
45323;DHT22;31382;50.200;8.674;2022-07-29T04:06:05;19.20;99.90
45323;DHT22;31382;50.200;8.674;2022-07-29T04:11:09;19.10;99.90
45323;DHT22;31382;50.200;8.674;2022-07-29T04:16:11;19.00;99.90
45323;DHT22;31382;50.200;8.674;2022-07-29T04:21:13;18.80;99.90
45323;DHT22;31382;50.200;8.674;2022-07-29T04:26:15;18.80;99.90
45323;DHT22;31382;50.200;8.674;2022-07-29T04:31:17;18.70;99.90
45323;DHT22;31382;50.200;8.674;2022-07-29T04:36:25;18.70;99.60
45323;DHT22;31382;50.200;8.674;2022-07-29T04:41:30;18.70;99.70
45323;DHT22;31382;50.200;8.674;2022-07-29T04:46:34;18.70;99.90
45323;DHT22;31382;50.200;8.674;2022-07-29T04:51:36;18.70;99.80
45323;DHT22;31382;50.200;8.674;2022-07-29T04:56:38;18.70;99.90
45323;DHT22;31382;50.200;8.674;2022-07-29T05:01:39;18.70;99.90
45323;DHT22;31382;50.200;8.674;2022-07-29T05:06:41;18.60;99.90
45323;DHT22;31382;50.200;8.674;2022-07-29T05:11:43;18.60;99.80
45323;DHT22;31382;50.200;8.674;2022-07-29T05:16:44;18.60;99.90
45323;DHT22;31382;50.200;8.674;2022-07-29T05:21:46;18.50;99.90
45323;DHT22;31382;50.200;8.674;2022-07-29T05:26:48;18.40;99.90
45323;DHT22;31382;50.200;8.674;2022-07-29T05:31:49;18.40;99.90
45323;DHT22;31382;50.200;8.674;2022-07-29T05:36:53;18.50;99.90
45323;DHT22;31382;50.200;8.674;2022-07-29T05:41:54;18.50;99.90
45323;DHT22;31382;50.200;8.674;2022-07-29T05:46:56;18.60;99.90
45323;DHT22;31382;50.200;8.674;2022-07-29T05:51:58;18.70;99.90
45323;DHT22;31382;50.200;8.674;2022-07-29T05:56:59;18.70;99.90
45323;DHT22;31382;50.200;8.674;2022-07-29T06:02:01;18.90;99.90
45323;DHT22;31382;50.200;8.674;2022-07-29T06:07:03;19.10;99.90
45323;DHT22;31382;50.200;8.674;2022-07-29T06:12:05;19.20;99.90
45323;DHT22;31382;50.200;8.674;2022-07-29T06:17:07;19.30;99.90
45323;DHT22;31382;50.200;8.674;2022-07-29T06:22:09;19.40;99.90
45323;DHT22;31382;50.200;8.674;2022-07-29T06:27:11;19.60;99.90
45323;DHT22;31382;50.200;8.674;2022-07-29T06:32:13;19.80;99.90
45323;DHT22;31382;50.200;8.674;2022-07-29T06:37:14;20.00;99.90
45323;DHT22;31382;50.200;8.674;2022-07-29T06:42:16;20.00;99.90
45323;DHT22;31382;50.200;8.674;2022-07-29T06:47:18;20.20;99.90
45323;DHT22;31382;50.200;8.674;2022-07-29T06:52:19;20.40;99.90
45323;DHT22;31382;50.200;8.674;2022-07-29T06:57:22;20.60;99.50
45323;DHT22;31382;50.200;8.674;2022-07-29T07:02:23;20.80;99.50
45323;DHT22;31382;50.200;8.674;2022-07-29T07:07:25;20.90;99.00
45323;DHT22;31382;50.200;8.674;2022-07-29T07:12:27;21.00;99.20
45323;DHT22;31382;50.200;8.674;2022-07-29T07:17:29;21.20;99.70
45323;DHT22;31382;50.200;8.674;2022-07-29T07:22:31;21.20;98.90
45323;DHT22;31382;50.200;8.674;2022-07-29T07:27:39;21.20;98.30
45323;DHT22;31382;50.200;8.674;2022-07-29T07:32:41;21.40;98.30
45323;DHT22;31382;50.200;8.674;2022-07-29T07:37:43;21.40;98.60
45323;DHT22;31382;50.200;8.674;2022-07-29T07:42:44;21.60;97.60
45323;DHT22;31382;50.200;8.674;2022-07-29T07:47:46;21.70;96.90
45323;DHT22;31382;50.200;8.674;2022-07-29T07:52:53;21.90;97.10
45323;DHT22;31382;50.200;8.674;2022-07-29T07:57:56;22.10;96.70
45323;DHT22;31382;50.200;8.674;2022-07-29T08:02:58;22.40;96.40
45323;DHT22;31382;50.200;8.674;2022-07-29T08:07:59;22.50;95.00
45323;DHT22;31382;50.200;8.674;2022-07-29T08:13:05;22.70;94.70
45323;DHT22;31382;50.200;8.674;2022-07-29T08:18:07;22.90;94.60
45323;DHT22;31382;50.200;8.674;2022-07-29T08:23:09;23.20;94.00
45323;DHT22;31382;50.200;8.674;2022-07-29T08:28:11;23.30;94.00
45323;DHT22;31382;50.200;8.674;2022-07-29T08:33:13;23.50;93.30
45323;DHT22;31382;50.200;8.674;2022-07-29T08:38:14;23.70;92.80
45323;DHT22;31382;50.200;8.674;2022-07-29T08:43:16;23.90;92.40
45323;DHT22;31382;50.200;8.674;2022-07-29T08:48:19;24.00;91.10
45323;DHT22;31382;50.200;8.674;2022-07-29T08:53:24;24.10;91.30
45323;DHT22;31382;50.200;8.674;2022-07-29T08:58:32;24.30;90.70
45323;DHT22;31382;50.200;8.674;2022-07-29T09:03:38;24.40;89.80
45323;DHT22;31382;50.200;8.674;2022-07-29T09:08:41;24.60;90.80
45323;DHT22;31382;50.200;8.674;2022-07-29T09:13:44;24.70;91.20
45323;DHT22;31382;50.200;8.674;2022-07-29T09:18:46;24.80;90.70
45323;DHT22;31382;50.200;8.674;2022-07-29T09:29:13;25.10;87.60
45323;DHT22;31382;50.200;8.674;2022-07-29T09:34:24;25.20;89.50
45323;DHT22;31382;50.200;8.674;2022-07-29T09:39:34;25.30;87.70
45323;DHT22;31382;50.200;8.674;2022-07-29T09:44:47;25.60;88.50
45323;DHT22;31382;50.200;8.674;2022-07-29T09:49:58;25.80;86.20
45323;DHT22;31382;50.200;8.674;2022-07-29T09:55:08;25.90;87.00
45323;DHT22;31382;50.200;8.674;2022-07-29T10:00:17;26.20;85.80
45323;DHT22;31382;50.200;8.674;2022-07-29T10:05:24;26.10;85.40
45323;DHT22;31382;50.200;8.674;2022-07-29T10:10:28;26.20;84.60
45323;DHT22;31382;50.200;8.674;2022-07-29T10:15:32;26.40;84.80
45323;DHT22;31382;50.200;8.674;2022-07-29T10:20:35;26.50;83.20
45323;DHT22;31382;50.200;8.674;2022-07-29T10:25:37;26.50;82.50
45323;DHT22;31382;50.200;8.674;2022-07-29T10:30:39;26.80;82.20
45323;DHT22;31382;50.200;8.674;2022-07-29T10:41:59;26.90;83.30
45323;DHT22;31382;50.200;8.674;2022-07-29T10:47:04;27.10;80.70
45323;DHT22;31382;50.200;8.674;2022-07-29T10:52:07;27.50;79.80
45323;DHT22;31382;50.200;8.674;2022-07-29T10:57:20;27.70;80.20
45323;DHT22;31382;50.200;8.674;2022-07-29T11:08:19;28.70;78.60
45323;DHT22;31382;50.200;8.674;2022-07-29T11:19:22;29.30;74.50
45323;DHT22;31382;50.200;8.674;2022-07-29T11:24:31;28.80;74.80
45323;DHT22;31382;50.200;8.674;2022-07-29T11:29:51;29.20;75.70
45323;DHT22;31382;50.200;8.674;2022-07-29T11:35:14;29.50;72.90
45323;DHT22;31382;50.200;8.674;2022-07-29T11:40:18;29.50;73.40
45323;DHT22;31382;50.200;8.674;2022-07-29T11:45:23;29.80;73.50
45323;DHT22;31382;50.200;8.674;2022-07-29T11:50:45;29.70;73.20
45323;DHT22;31382;50.200;8.674;2022-07-29T11:55:54;29.60;73.60
45323;DHT22;31382;50.200;8.674;2022-07-29T12:00:59;29.90;71.80
45323;DHT22;31382;50.200;8.674;2022-07-29T12:06:15;30.10;72.80
45323;DHT22;31382;50.200;8.674;2022-07-29T12:11:19;30.40;70.90
45323;DHT22;31382;50.200;8.674;2022-07-29T12:16:36;30.50;71.10
45323;DHT22;31382;50.200;8.674;2022-07-29T12:26:58;30.70;70.40
45323;DHT22;31382;50.200;8.674;2022-07-29T12:32:00;30.90;71.40
45323;DHT22;31382;50.200;8.674;2022-07-29T12:37:03;30.90;71.80
45323;DHT22;31382;50.200;8.674;2022-07-29T12:42:15;30.80;69.10
45323;DHT22;31382;50.200;8.674;2022-07-29T12:47:20;30.30;69.70
45323;DHT22;31382;50.200;8.674;2022-07-29T12:52:29;30.40;70.10
45323;DHT22;31382;50.200;8.674;2022-07-29T12:57:32;30.60;71.80
45323;DHT22;31382;50.200;8.674;2022-07-29T13:02:34;31.10;70.10
45323;DHT22;31382;50.200;8.674;2022-07-29T13:07:38;31.00;69.20
45323;DHT22;31382;50.200;8.674;2022-07-29T13:13:08;30.60;69.40
45323;DHT22;31382;50.200;8.674;2022-07-29T13:18:31;30.60;67.90
45323;DHT22;31382;50.200;8.674;2022-07-29T13:23:33;30.90;68.70
45323;DHT22;31382;50.200;8.674;2022-07-29T13:28:39;30.90;67.90
45323;DHT22;31382;50.200;8.674;2022-07-29T13:33:44;31.20;68.40
45323;DHT22;31382;50.200;8.674;2022-07-29T13:38:46;31.60;65.80
45323;DHT22;31382;50.200;8.674;2022-07-29T13:43:48;31.90;65.50
45323;DHT22;31382;50.200;8.674;2022-07-29T13:48:50;32.20;64.20
45323;DHT22;31382;50.200;8.674;2022-07-29T13:53:52;32.30;64.80
45323;DHT22;31382;50.200;8.674;2022-07-29T13:58:54;31.90;64.00
45323;DHT22;31382;50.200;8.674;2022-07-29T14:03:55;32.30;62.70
45323;DHT22;31382;50.200;8.674;2022-07-29T14:08:57;32.10;63.50
45323;DHT22;31382;50.200;8.674;2022-07-29T14:13:59;32.10;63.80
45323;DHT22;31382;50.200;8.674;2022-07-29T14:19:01;31.90;64.50
45323;DHT22;31382;50.200;8.674;2022-07-29T14:24:03;31.50;64.80
45323;DHT22;31382;50.200;8.674;2022-07-29T14:29:17;30.80;68.40
45323;DHT22;31382;50.200;8.674;2022-07-29T14:34:19;29.90;71.70
45323;DHT22;31382;50.200;8.674;2022-07-29T14:39:22;29.40;73.90
45323;DHT22;31382;50.200;8.674;2022-07-29T14:44:24;28.60;76.60
45323;DHT22;31382;50.200;8.674;2022-07-29T14:49:31;27.90;79.10
45323;DHT22;31382;50.200;8.674;2022-07-29T14:54:32;27.30;82.40
45323;DHT22;31382;50.200;8.674;2022-07-29T14:59:34;26.70;88.70
45323;DHT22;31382;50.200;8.674;2022-07-29T15:04:36;26.60;91.20
45323;DHT22;31382;50.200;8.674;2022-07-29T15:09:38;25.90;93.00
45323;DHT22;31382;50.200;8.674;2022-07-29T15:14:50;25.90;90.50
45323;DHT22;31382;50.200;8.674;2022-07-29T15:19:51;26.20;86.80
45323;DHT22;31382;50.200;8.674;2022-07-29T15:24:53;26.50;87.60
45323;DHT22;31382;50.200;8.674;2022-07-29T15:29:55;26.60;84.10
45323;DHT22;31382;50.200;8.674;2022-07-29T15:34:56;26.80;83.20
45323;DHT22;31382;50.200;8.674;2022-07-29T15:39:58;27.00;81.50
45323;DHT22;31382;50.200;8.674;2022-07-29T15:45:00;27.30;82.10
45323;DHT22;31382;50.200;8.674;2022-07-29T15:50:04;27.10;82.30
45323;DHT22;31382;50.200;8.674;2022-07-29T15:55:08;27.10;83.00
45323;DHT22;31382;50.200;8.674;2022-07-29T16:00:10;27.20;84.10
45323;DHT22;31382;50.200;8.674;2022-07-29T16:05:13;27.00;84.80
45323;DHT22;31382;50.200;8.674;2022-07-29T16:10:14;26.70;85.50
45323;DHT22;31382;50.200;8.674;2022-07-29T16:15:16;26.70;85.70
45323;DHT22;31382;50.200;8.674;2022-07-29T16:20:18;26.50;85.70
45323;DHT22;31382;50.200;8.674;2022-07-29T16:25:22;26.50;86.50
45323;DHT22;31382;50.200;8.674;2022-07-29T16:30:44;26.40;86.80
45323;DHT22;31382;50.200;8.674;2022-07-29T16:35:46;26.30;87.50
45323;DHT22;31382;50.200;8.674;2022-07-29T16:40:47;26.40;88.70
45323;DHT22;31382;50.200;8.674;2022-07-29T16:45:49;26.50;91.20
45323;DHT22;31382;50.200;8.674;2022-07-29T16:50:51;27.00;91.50
45323;DHT22;31382;50.200;8.674;2022-07-29T16:55:52;27.60;90.80
45323;DHT22;31382;50.200;8.674;2022-07-29T17:00:55;27.80;90.20
45323;DHT22;31382;50.200;8.674;2022-07-29T17:05:56;28.30;89.70
45323;DHT22;31382;50.200;8.674;2022-07-29T17:10:58;28.40;89.00
45323;DHT22;31382;50.200;8.674;2022-07-29T17:16:00;27.90;88.40
45323;DHT22;31382;50.200;8.674;2022-07-29T17:21:01;27.40;89.40
45323;DHT22;31382;50.200;8.674;2022-07-29T17:26:03;26.90;90.10
45323;DHT22;31382;50.200;8.674;2022-07-29T17:31:05;26.40;91.20
45323;DHT22;31382;50.200;8.674;2022-07-29T17:36:07;26.20;91.80
45323;DHT22;31382;50.200;8.674;2022-07-29T17:41:24;25.90;92.20
45323;DHT22;31382;50.200;8.674;2022-07-29T17:46:26;25.60;92.90
45323;DHT22;31382;50.200;8.674;2022-07-29T17:51:28;25.50;93.50
45323;DHT22;31382;50.200;8.674;2022-07-29T17:56:30;25.30;93.80
45323;DHT22;31382;50.200;8.674;2022-07-29T18:01:32;25.20;94.00
45323;DHT22;31382;50.200;8.674;2022-07-29T18:06:34;24.80;94.90
45323;DHT22;31382;50.200;8.674;2022-07-29T18:11:35;24.70;94.80
45323;DHT22;31382;50.200;8.674;2022-07-29T18:16:39;24.40;95.50
45323;DHT22;31382;50.200;8.674;2022-07-29T18:21:41;24.50;96.20
45323;DHT22;31382;50.200;8.674;2022-07-29T18:26:55;24.40;96.80
45323;DHT22;31382;50.200;8.674;2022-07-29T18:31:57;24.30;96.70
45323;DHT22;31382;50.200;8.674;2022-07-29T18:37:00;23.90;96.80
45323;DHT22;31382;50.200;8.674;2022-07-29T18:42:02;23.70;97.60
45323;DHT22;31382;50.200;8.674;2022-07-29T18:47:04;23.50;98.20
45323;DHT22;31382;50.200;8.674;2022-07-29T18:52:07;23.50;98.90
45323;DHT22;31382;50.200;8.674;2022-07-29T18:57:08;23.50;99.20
45323;DHT22;31382;50.200;8.674;2022-07-29T19:02:30;23.30;99.50
45323;DHT22;31382;50.200;8.674;2022-07-29T19:07:32;23.20;99.90
45323;DHT22;31382;50.200;8.674;2022-07-29T19:12:34;23.20;99.90
45323;DHT22;31382;50.200;8.674;2022-07-29T19:17:36;23.00;99.90
45323;DHT22;31382;50.200;8.674;2022-07-29T19:22:38;23.00;99.90
45323;DHT22;31382;50.200;8.674;2022-07-29T19:27:40;22.90;99.90
45323;DHT22;31382;50.200;8.674;2022-07-29T19:32:41;22.90;99.90
45323;DHT22;31382;50.200;8.674;2022-07-29T19:37:43;22.80;99.90
45323;DHT22;31382;50.200;8.674;2022-07-29T19:42:45;22.70;99.90
45323;DHT22;31382;50.200;8.674;2022-07-29T19:47:48;22.70;99.90
45323;DHT22;31382;50.200;8.674;2022-07-29T19:52:51;22.60;99.90
45323;DHT22;31382;50.200;8.674;2022-07-29T19:57:53;22.50;99.90
45323;DHT22;31382;50.200;8.674;2022-07-29T20:02:55;22.60;99.90
45323;DHT22;31382;50.200;8.674;2022-07-29T20:07:57;22.50;99.90
45323;DHT22;31382;50.200;8.674;2022-07-29T20:12:59;22.40;99.90
45323;DHT22;31382;50.200;8.674;2022-07-29T20:18:01;22.40;99.90
45323;DHT22;31382;50.200;8.674;2022-07-29T20:23:03;22.40;99.90
45323;DHT22;31382;50.200;8.674;2022-07-29T20:28:06;22.40;99.90
45323;DHT22;31382;50.200;8.674;2022-07-29T20:33:07;22.30;99.90
45323;DHT22;31382;50.200;8.674;2022-07-29T20:38:09;22.10;99.90
45323;DHT22;31382;50.200;8.674;2022-07-29T20:43:16;22.00;99.90
45323;DHT22;31382;50.200;8.674;2022-07-29T20:48:18;22.00;99.90
45323;DHT22;31382;50.200;8.674;2022-07-29T20:53:20;21.90;99.90
45323;DHT22;31382;50.200;8.674;2022-07-29T20:58:22;21.90;99.90
45323;DHT22;31382;50.200;8.674;2022-07-29T21:03:23;21.90;99.90
45323;DHT22;31382;50.200;8.674;2022-07-29T21:08:26;21.90;99.90
45323;DHT22;31382;50.200;8.674;2022-07-29T21:13:27;21.80;99.90
45323;DHT22;31382;50.200;8.674;2022-07-29T21:18:29;21.80;99.90
45323;DHT22;31382;50.200;8.674;2022-07-29T21:23:33;21.80;99.90
45323;DHT22;31382;50.200;8.674;2022-07-29T21:28:37;21.80;99.90
45323;DHT22;31382;50.200;8.674;2022-07-29T21:33:42;21.60;99.90
45323;DHT22;31382;50.200;8.674;2022-07-29T21:38:44;21.60;99.90
45323;DHT22;31382;50.200;8.674;2022-07-29T21:43:46;21.50;99.90
45323;DHT22;31382;50.200;8.674;2022-07-29T21:48:48;21.40;99.90
45323;DHT22;31382;50.200;8.674;2022-07-29T21:53:49;21.30;99.90
45323;DHT22;31382;50.200;8.674;2022-07-29T21:58:54;21.20;99.90
45323;DHT22;31382;50.200;8.674;2022-07-29T22:03:55;21.10;99.90
45323;DHT22;31382;50.200;8.674;2022-07-29T22:08:57;21.10;99.90
45323;DHT22;31382;50.200;8.674;2022-07-29T22:13:59;21.00;99.90
45323;DHT22;31382;50.200;8.674;2022-07-29T22:19:01;21.00;99.90
45323;DHT22;31382;50.200;8.674;2022-07-29T22:24:04;20.90;99.90
45323;DHT22;31382;50.200;8.674;2022-07-29T22:29:06;20.70;99.90
45323;DHT22;31382;50.200;8.674;2022-07-29T22:34:08;20.60;99.90
45323;DHT22;31382;50.200;8.674;2022-07-29T22:39:13;20.60;99.90
45323;DHT22;31382;50.200;8.674;2022-07-29T22:44:16;20.50;99.90
45323;DHT22;31382;50.200;8.674;2022-07-29T22:49:19;20.40;99.90
45323;DHT22;31382;50.200;8.674;2022-07-29T22:54:20;20.20;99.90
45323;DHT22;31382;50.200;8.674;2022-07-29T22:59:22;20.20;99.90
45323;DHT22;31382;50.200;8.674;2022-07-29T23:04:24;20.00;99.90
45323;DHT22;31382;50.200;8.674;2022-07-29T23:09:26;19.90;99.90
45323;DHT22;31382;50.200;8.674;2022-07-29T23:14:27;19.90;99.90
45323;DHT22;31382;50.200;8.674;2022-07-29T23:19:29;19.90;99.90
45323;DHT22;31382;50.200;8.674;2022-07-29T23:24:31;19.90;99.90
45323;DHT22;31382;50.200;8.674;2022-07-29T23:29:32;19.90;99.90
45323;DHT22;31382;50.200;8.674;2022-07-29T23:34:37;19.80;99.90
45323;DHT22;31382;50.200;8.674;2022-07-29T23:39:39;19.70;99.90
45323;DHT22;31382;50.200;8.674;2022-07-29T23:44:40;19.60;99.90
45323;DHT22;31382;50.200;8.674;2022-07-29T23:49:42;19.50;99.90
45323;DHT22;31382;50.200;8.674;2022-07-29T23:54:44;19.50;99.90
45323;DHT22;31382;50.200;8.674;2022-07-29T23:59:46;19.50;99.90
